createdAt,value
2019-05-25T00:00:54.564Z,7.43
2019-05-25T00:03:23.027Z,5.47
2019-05-25T00:05:51.452Z,9.87
2019-05-25T00:08:20.118Z,6.70
2019-05-25T00:10:48.514Z,9.03
2019-05-25T00:13:16.982Z,7.80
2019-05-25T00:15:45.417Z,4.63
2019-05-25T00:18:13.807Z,2.63
2019-05-25T00:20:42.228Z,5.03
2019-05-25T00:23:10.661Z,5.03
2019-05-25T00:25:39.135Z,8.90
2019-05-25T00:28:07.603Z,2.80
2019-05-25T00:30:36.150Z,4.43
2019-05-25T00:33:04.629Z,8.23
2019-05-25T00:35:33.274Z,5.50
2019-05-25T00:38:01.757Z,3.97
2019-05-25T00:40:30.167Z,6.70
2019-05-25T00:42:58.569Z,5.37
2019-05-25T00:45:26.992Z,3.63
2019-05-25T00:47:55.469Z,4.97
2019-05-25T00:50:23.894Z,3.97
2019-05-25T00:52:52.344Z,5.83
2019-05-25T00:55:20.757Z,10.80
2019-05-25T00:57:49.178Z,4.83
2019-05-25T01:00:18.438Z,3.53
2019-05-25T01:02:46.934Z,9.43
2019-05-25T01:05:15.429Z,3.23
2019-05-25T01:07:43.841Z,4.07
2019-05-25T01:10:12.769Z,7.70
2019-05-25T01:12:41.198Z,7.53
2019-05-25T01:15:11.619Z,2.83
2019-05-25T01:17:40.102Z,4.10
2019-05-25T01:20:09.984Z,3.83
2019-05-25T01:22:38.493Z,4.87
2019-05-25T01:25:08.726Z,7.30
2019-05-25T01:27:37.205Z,6.00
2019-05-25T01:30:07.586Z,5.70
2019-05-25T01:32:36.006Z,4.00
2019-05-25T01:37:53.243Z,6.50
2019-05-25T01:40:21.799Z,3.73
2019-05-25T01:42:50.197Z,10.60
2019-05-25T01:45:18.691Z,6.83
2019-05-25T01:47:47.190Z,4.50
2019-05-25T01:50:15.827Z,5.40
2019-05-25T01:52:44.254Z,8.13
2019-05-25T01:55:12.913Z,6.00
2019-05-25T01:57:41.326Z,5.10
2019-05-25T02:00:10.355Z,2.70
2019-05-25T02:02:38.908Z,5.20
2019-05-25T02:05:07.700Z,3.97
2019-05-25T02:07:36.235Z,5.17
2019-05-25T02:10:09.285Z,8.20
2019-05-25T02:12:37.695Z,2.87
2019-05-25T02:15:10.466Z,10.53
2019-05-25T02:17:38.932Z,5.30
2019-05-25T02:20:07.785Z,5.83
2019-05-25T02:22:36.267Z,5.87
2019-05-25T02:25:16.989Z,2.53
2019-05-25T02:27:37.395Z,3.80
2019-05-25T02:30:07.715Z,3.87
2019-05-25T02:32:36.212Z,5.10
2019-05-25T02:35:06.422Z,3.53
2019-05-25T02:37:34.834Z,2.83
2019-05-25T02:40:04.899Z,5.43
2019-05-25T02:42:33.359Z,5.43
2019-05-25T02:45:01.822Z,5.37
2019-05-25T02:47:30.312Z,10.17
2019-05-25T02:49:58.790Z,5.77
2019-05-25T02:52:27.224Z,4.00
2019-05-25T02:54:55.650Z,4.07
2019-05-25T02:57:24.132Z,5.07
2019-05-25T02:59:52.553Z,3.90
2019-05-25T03:02:21.736Z,6.23
2019-05-25T03:04:50.332Z,7.80
2019-05-25T03:07:19.803Z,4.80
2019-05-25T03:09:50.656Z,5.37
2019-05-25T03:12:19.221Z,6.10
2019-05-25T03:14:47.619Z,6.57
2019-05-25T03:17:16.039Z,4.50
2019-05-25T03:19:44.465Z,6.10
2019-05-25T03:22:12.877Z,11.33
2019-05-25T03:24:41.340Z,5.03
2019-05-25T03:27:09.764Z,9.17
2019-05-25T03:29:38.199Z,5.97
2019-05-25T03:32:06.606Z,5.73
2019-05-25T03:34:35.033Z,11.63
2019-05-25T03:37:03.452Z,7.90
2019-05-25T03:39:31.936Z,12.47
2019-05-25T03:42:00.416Z,8.13
2019-05-25T03:44:28.834Z,10.70
2019-05-25T03:46:57.303Z,11.93
2019-05-25T03:49:25.779Z,9.23
2019-05-25T03:51:54.197Z,8.67
2019-05-25T03:54:22.619Z,10.07
2019-05-25T03:56:51.030Z,12.37
2019-05-25T03:59:19.451Z,8.20
2019-05-25T04:01:47.890Z,6.20
2019-05-25T04:04:16.365Z,11.20
2019-05-25T04:06:44.811Z,8.90
2019-05-25T04:09:13.236Z,9.10
2019-05-25T04:11:41.665Z,10.50
2019-05-25T04:14:10.083Z,13.40
2019-05-25T04:16:38.506Z,12.50
2019-05-25T04:19:06.934Z,9.63
2019-05-25T04:21:35.339Z,10.27
2019-05-25T04:24:04.239Z,9.50
2019-05-25T04:26:32.780Z,10.43
2019-05-25T04:29:01.185Z,16.10
2019-05-25T04:31:29.621Z,9.63
2019-05-25T04:33:58.003Z,8.33
2019-05-25T04:36:26.424Z,12.93
2019-05-25T04:38:54.855Z,12.90
2019-05-25T04:41:23.306Z,22.03
2019-05-25T04:43:51.725Z,13.67
2019-05-25T04:46:21.610Z,11.77
2019-05-25T04:48:50.226Z,7.20
2019-05-25T04:51:18.714Z,17.63
2019-05-25T04:53:47.185Z,28.50
2019-05-25T04:56:15.663Z,11.97
2019-05-25T04:58:44.114Z,10.27
2019-05-25T05:01:12.514Z,12.33
2019-05-25T05:03:40.915Z,13.10
2019-05-25T05:06:09.453Z,14.63
2019-05-25T05:08:37.849Z,15.30
2019-05-25T05:11:06.333Z,12.80
2019-05-25T05:13:34.738Z,12.10
2019-05-25T05:16:03.171Z,9.37
2019-05-25T05:18:31.721Z,13.10
2019-05-25T05:21:00.158Z,13.97
2019-05-25T05:23:28.641Z,12.00
2019-05-25T05:25:57.043Z,14.47
2019-05-25T05:28:25.450Z,28.10
2019-05-25T05:30:54.014Z,17.73
2019-05-25T05:33:22.885Z,11.63
2019-05-25T05:35:52.268Z,14.50
2019-05-25T05:38:21.350Z,15.33
2019-05-25T05:40:50.623Z,13.30
2019-05-25T05:43:20.182Z,17.23
2019-05-25T05:45:51.252Z,14.17
2019-05-25T05:48:22.701Z,12.80
2019-05-25T05:50:52.919Z,11.10
2019-05-25T05:53:23.148Z,12.87
2019-05-25T05:55:51.544Z,11.57
2019-05-25T05:58:19.947Z,12.73
2019-05-25T06:00:48.425Z,11.73
2019-05-25T06:03:16.899Z,16.43
2019-05-25T06:05:45.420Z,10.93
2019-05-25T06:08:13.949Z,10.77
2019-05-25T06:10:42.352Z,9.50
2019-05-25T06:13:10.778Z,13.43
2019-05-25T06:15:39.246Z,14.27
2019-05-25T06:18:07.741Z,12.83
2019-05-25T06:20:36.141Z,14.07
2019-05-25T06:23:08.474Z,14.23
2019-05-25T06:25:34.859Z,11.70
2019-05-25T06:28:03.386Z,17.37
2019-05-25T06:30:31.827Z,15.10
2019-05-25T06:33:00.322Z,11.30
2019-05-25T06:35:28.748Z,11.90
2019-05-25T06:37:57.153Z,11.00
2019-05-25T06:40:25.790Z,16.00
2019-05-25T06:42:55.995Z,16.23
2019-05-25T06:45:24.432Z,8.83
2019-05-25T06:47:52.872Z,11.13
2019-05-25T06:50:21.446Z,8.73
2019-05-25T06:52:49.925Z,14.80
2019-05-25T06:55:18.489Z,14.10
2019-05-25T06:57:46.928Z,15.70
2019-05-25T07:00:16.345Z,8.63
2019-05-25T07:02:44.760Z,11.70
2019-05-25T07:05:13.403Z,11.60
2019-05-25T07:07:41.870Z,8.40
2019-05-25T07:10:10.740Z,10.37
2019-05-25T07:12:39.215Z,11.57
2019-05-25T07:15:08.895Z,12.47
2019-05-25T07:17:37.320Z,9.60
2019-05-25T07:20:09.792Z,10.90
2019-05-25T07:22:38.210Z,19.13
2019-05-25T07:25:07.605Z,10.77
2019-05-25T07:27:36.002Z,12.00
2019-05-25T07:30:06.530Z,14.83
2019-05-25T07:32:35.052Z,16.00
2019-05-25T07:35:04.869Z,20.03
2019-05-25T07:37:33.294Z,25.37
2019-05-25T07:40:01.710Z,25.07
2019-05-25T07:42:30.200Z,21.90
2019-05-25T07:44:58.707Z,25.53
2019-05-25T07:47:27.108Z,21.93
2019-05-25T07:49:55.523Z,27.33
2019-05-25T07:52:23.967Z,24.10
2019-05-25T07:54:52.374Z,21.53
2019-05-25T07:57:20.808Z,23.13
2019-05-25T07:59:49.246Z,28.43
2019-05-25T08:02:17.678Z,33.70
2019-05-25T08:04:46.080Z,41.03
2019-05-25T08:07:14.513Z,43.83
2019-05-25T08:09:43.014Z,44.60
2019-05-25T08:12:11.452Z,40.73
2019-05-25T08:14:39.874Z,39.67
2019-05-25T08:17:08.315Z,33.97
2019-05-25T08:19:36.809Z,23.13
2019-05-25T08:22:05.388Z,28.00
2019-05-25T08:24:33.797Z,28.53
2019-05-25T08:27:02.215Z,28.67
2019-05-25T08:29:30.648Z,32.93
2019-05-25T08:31:59.058Z,25.27
2019-05-25T08:34:27.502Z,28.40
2019-05-25T08:36:56.002Z,23.30
2019-05-25T08:39:24.458Z,22.77
2019-05-25T08:41:52.939Z,27.40
2019-05-25T08:44:21.376Z,21.77
2019-05-25T08:46:49.805Z,20.30
2019-05-25T08:49:18.234Z,20.60
2019-05-25T08:51:46.676Z,19.10
2019-05-25T08:54:15.140Z,21.50
2019-05-25T08:56:57.023Z,17.43
2019-05-25T08:59:25.696Z,25.93
2019-05-25T09:01:54.125Z,17.90
2019-05-25T09:04:25.508Z,18.93
2019-05-25T09:06:52.777Z,19.80
2019-05-25T09:09:21.285Z,18.73
2019-05-25T09:11:49.794Z,20.60
2019-05-25T09:14:18.208Z,16.83
2019-05-25T09:16:46.611Z,17.73
2019-05-25T09:19:15.055Z,18.40
2019-05-25T09:21:43.454Z,18.80
2019-05-25T09:24:11.995Z,14.57
2019-05-25T09:26:40.413Z,20.90
2019-05-25T09:29:09.211Z,14.00
2019-05-25T09:31:37.712Z,16.20
2019-05-25T09:34:06.119Z,15.43
2019-05-25T09:36:34.549Z,14.53
2019-05-25T09:39:03.055Z,14.53
2019-05-25T09:41:31.502Z,14.87
2019-05-25T09:43:59.905Z,16.13
2019-05-25T09:46:28.333Z,14.97
2019-05-25T09:48:56.853Z,18.80
2019-05-25T09:51:25.275Z,13.20
2019-05-25T09:53:53.752Z,15.47
2019-05-25T09:56:22.156Z,16.57
2019-05-25T09:58:50.556Z,16.87
2019-05-25T10:01:19.068Z,18.73
2019-05-25T10:03:47.487Z,17.60
2019-05-25T10:06:15.922Z,14.23
2019-05-25T10:08:44.326Z,14.03
2019-05-25T10:11:12.829Z,12.77
2019-05-25T10:13:41.242Z,14.10
2019-05-25T10:16:09.720Z,12.53
2019-05-25T10:18:38.179Z,15.50
2019-05-25T10:21:06.584Z,14.77
2019-05-25T10:23:35.486Z,12.07
2019-05-25T10:26:04.004Z,13.00
2019-05-25T10:28:32.410Z,11.27
2019-05-25T10:31:00.901Z,24.67
2019-05-25T10:33:29.344Z,14.30
2019-05-25T10:35:57.756Z,10.07
2019-05-25T10:38:26.164Z,18.73
2019-05-25T10:40:55.535Z,13.47
2019-05-25T10:43:24.736Z,10.40
2019-05-25T10:45:53.172Z,11.97
2019-05-25T10:48:21.677Z,13.07
2019-05-25T10:50:50.076Z,13.23
2019-05-25T10:53:18.493Z,11.53
2019-05-25T10:55:46.938Z,15.80
2019-05-25T10:58:15.358Z,12.80
2019-05-25T11:00:43.771Z,13.73
2019-05-25T11:03:12.206Z,13.50
2019-05-25T11:05:40.616Z,13.07
2019-05-25T11:08:09.019Z,11.23
2019-05-25T11:10:37.456Z,9.37
2019-05-25T11:13:05.949Z,13.93
2019-05-25T11:15:34.379Z,14.07
2019-05-25T11:18:02.848Z,13.73
2019-05-25T11:20:31.316Z,9.97
2019-05-25T11:23:00.317Z,9.40
2019-05-25T11:25:28.695Z,12.53
2019-05-25T11:27:57.163Z,11.17
2019-05-25T11:30:25.695Z,9.57
2019-05-25T11:32:54.131Z,8.77
2019-05-25T11:35:22.770Z,12.77
2019-05-25T11:37:51.244Z,8.87
2019-05-25T11:40:21.011Z,14.67
2019-05-25T11:42:49.509Z,11.90
2019-05-25T11:45:18.769Z,9.27
2019-05-25T11:47:47.235Z,10.17
2019-05-25T11:50:16.029Z,11.80
2019-05-25T11:52:44.511Z,15.80
2019-05-25T11:55:13.234Z,11.17
2019-05-25T11:57:41.803Z,14.83
2019-05-25T12:00:24.369Z,11.83
2019-05-25T12:02:43.635Z,11.70
2019-05-25T12:05:13.497Z,11.47
2019-05-25T12:07:44.584Z,11.03
2019-05-25T12:10:12.968Z,10.73
2019-05-25T12:12:41.467Z,17.30
2019-05-25T12:15:10.587Z,12.00
2019-05-25T12:17:39.007Z,11.80
2019-05-25T12:20:09.002Z,13.27
2019-05-25T12:22:37.443Z,10.40
2019-05-25T12:25:07.505Z,11.90
2019-05-25T12:27:35.898Z,10.80
2019-05-25T12:30:06.665Z,11.80
2019-05-25T12:32:35.164Z,13.43
2019-05-25T12:35:05.337Z,12.53
2019-05-25T12:37:33.751Z,12.20
2019-05-25T12:40:02.484Z,10.53
2019-05-25T12:42:30.856Z,13.00
2019-05-25T12:44:59.376Z,11.30
2019-05-25T12:47:27.831Z,9.50
2019-05-25T12:49:56.218Z,8.33
2019-05-25T12:52:24.645Z,12.43
2019-05-25T12:54:53.046Z,11.20
2019-05-25T12:57:24.110Z,11.70
2019-05-25T12:59:51.621Z,12.50
2019-05-25T13:02:20.110Z,11.23
2019-05-25T13:04:48.557Z,9.50
2019-05-25T13:07:17.051Z,13.10
2019-05-25T13:09:45.522Z,8.50
2019-05-25T13:12:14.029Z,7.97
2019-05-25T13:14:42.441Z,9.20
2019-05-25T13:17:10.923Z,14.40
2019-05-25T13:19:39.399Z,7.73
2019-05-25T13:22:07.827Z,7.53
2019-05-25T13:24:36.243Z,10.53
2019-05-25T13:27:04.806Z,10.63
2019-05-25T13:29:33.279Z,8.27
2019-05-25T13:32:01.768Z,9.23
2019-05-25T13:34:30.307Z,6.93
2019-05-25T13:37:01.689Z,8.00
2019-05-25T13:39:28.884Z,9.73
2019-05-25T13:41:57.344Z,12.30
2019-05-25T13:44:25.835Z,7.87
2019-05-25T13:46:54.322Z,7.20
2019-05-25T13:49:25.440Z,7.13
2019-05-25T13:51:53.852Z,7.80
2019-05-25T13:54:22.277Z,6.10
2019-05-25T13:56:50.782Z,8.80
2019-05-25T13:59:19.314Z,8.90
2019-05-25T14:01:47.817Z,7.87
2019-05-25T14:04:16.296Z,10.67
2019-05-25T14:06:44.736Z,8.77
2019-05-25T14:09:15.871Z,5.60
2019-05-25T14:11:43.364Z,9.20
2019-05-25T14:14:11.787Z,5.87
2019-05-25T14:16:40.205Z,9.30
2019-05-25T14:19:08.662Z,5.80
2019-05-25T14:21:37.084Z,6.43
2019-05-25T14:24:05.595Z,7.37
2019-05-25T14:26:34.011Z,7.90
2019-05-25T14:29:02.531Z,7.10
2019-05-25T14:31:44.446Z,9.47
2019-05-25T14:34:01.166Z,7.63
2019-05-25T14:36:29.586Z,7.83
2019-05-25T14:39:00.852Z,6.90
2019-05-25T14:41:29.258Z,8.10
2019-05-25T14:43:57.681Z,4.23
2019-05-25T14:46:28.245Z,18.63
2019-05-25T14:48:56.312Z,9.77
2019-05-25T14:51:24.747Z,8.10
2019-05-25T14:53:53.160Z,10.73
2019-05-25T14:56:21.586Z,3.53
2019-05-25T14:58:50.357Z,7.57
2019-05-25T15:01:18.730Z,4.90
2019-05-25T15:03:47.114Z,6.40
2019-05-25T15:06:20.545Z,7.73
2019-05-25T15:08:46.147Z,5.70
2019-05-25T15:11:14.566Z,4.40
2019-05-25T15:13:42.987Z,5.57
2019-05-25T15:16:11.468Z,10.37
2019-05-25T15:18:39.903Z,4.30
2019-05-25T15:21:08.310Z,6.03
2019-05-25T15:23:36.811Z,10.33
2019-05-25T15:26:05.651Z,4.63
2019-05-25T15:28:34.099Z,8.87
2019-05-25T15:31:02.578Z,2.97
2019-05-25T15:33:30.997Z,7.00
2019-05-25T15:35:59.406Z,6.33
2019-05-25T15:38:27.821Z,3.83
2019-05-25T15:40:56.236Z,7.70
2019-05-25T15:43:24.653Z,7.97
2019-05-25T15:45:53.086Z,7.73
2019-05-25T15:48:21.654Z,4.97
2019-05-25T15:50:50.054Z,4.93
2019-05-25T15:53:18.540Z,9.93
2019-05-25T15:55:46.921Z,7.70
2019-05-25T15:58:15.449Z,4.70
2019-05-25T16:00:51.327Z,5.37
2019-05-25T16:03:21.625Z,5.07
2019-05-25T16:05:50.557Z,5.20
2019-05-25T16:08:19.804Z,5.80
2019-05-25T16:10:48.857Z,5.40
2019-05-25T16:13:17.745Z,5.20
2019-05-25T16:15:46.129Z,5.10
2019-05-25T16:18:14.523Z,7.60
2019-05-25T16:20:42.954Z,10.90
2019-05-25T16:23:11.460Z,7.00
2019-05-25T16:25:39.859Z,6.23
2019-05-25T16:28:08.267Z,6.33
2019-05-25T16:30:36.775Z,10.13
2019-05-25T16:33:12.606Z,6.27
2019-05-25T16:35:35.609Z,5.00
2019-05-25T16:38:04.235Z,6.40
2019-05-25T16:40:34.127Z,9.43
2019-05-25T16:43:02.575Z,6.53
2019-05-25T16:45:30.983Z,7.10
2019-05-25T16:47:59.461Z,7.90
2019-05-25T16:50:27.949Z,7.30
2019-05-25T16:52:56.366Z,6.70
2019-05-25T16:55:24.798Z,6.73
2019-05-25T16:57:53.288Z,7.90
2019-05-25T17:00:27.320Z,9.00
2019-05-25T17:02:57.238Z,6.20
2019-05-25T17:05:26.535Z,5.87
2019-05-25T17:07:55.032Z,7.60
2019-05-25T17:10:25.330Z,4.53
2019-05-25T17:12:53.729Z,5.47
2019-05-25T17:15:22.490Z,6.77
2019-05-25T17:17:51.553Z,5.53
2019-05-25T17:20:20.098Z,5.03
2019-05-25T17:22:48.524Z,6.17
2019-05-25T17:25:17.679Z,7.10
2019-05-25T17:27:46.145Z,6.07
2019-05-25T17:30:16.551Z,7.47
2019-05-25T17:32:45.039Z,5.27
2019-05-25T17:35:15.119Z,13.67
2019-05-25T17:37:43.606Z,5.60
2019-05-25T17:40:12.675Z,6.00
2019-05-25T17:42:41.258Z,4.70
2019-05-25T17:45:10.034Z,11.67
2019-05-25T17:47:38.559Z,3.50
2019-05-25T17:50:08.143Z,4.53
2019-05-25T17:52:36.548Z,7.10
2019-05-25T17:55:06.883Z,4.57
2019-05-25T17:57:35.386Z,4.20
2019-05-25T18:00:06.526Z,6.10
2019-05-25T18:02:36.837Z,8.03
2019-05-25T18:05:07.575Z,6.23
2019-05-25T18:07:36.095Z,5.93
2019-05-25T18:10:07.801Z,3.27
2019-05-25T18:12:36.282Z,4.97
2019-05-25T18:15:07.761Z,5.80
2019-05-25T18:17:36.214Z,4.60
2019-05-25T18:20:07.426Z,6.90
2019-05-25T18:22:35.869Z,4.03
2019-05-25T18:25:07.922Z,5.83
2019-05-25T18:27:36.349Z,4.97
2019-05-25T18:30:06.785Z,6.23
2019-05-25T18:32:35.198Z,8.57
2019-05-25T18:35:04.899Z,4.83
2019-05-25T18:37:36.356Z,5.03
2019-05-25T18:40:09.696Z,4.07
2019-05-25T18:42:38.309Z,7.23
2019-05-25T18:45:08.146Z,8.63
2019-05-25T18:47:36.657Z,8.47
2019-05-25T18:50:09.875Z,4.50
2019-05-25T18:52:38.343Z,13.47
2019-05-25T18:55:08.624Z,31.23
2019-05-25T18:57:37.114Z,23.07
2019-05-25T19:00:08.809Z,12.33
2019-05-25T19:02:37.507Z,5.43
2019-05-25T19:05:07.247Z,7.47
2019-05-25T19:07:35.922Z,4.67
2019-05-25T19:10:07.031Z,7.33
2019-05-25T19:12:35.639Z,5.07
2019-05-25T19:15:07.376Z,3.90
2019-05-25T19:17:35.788Z,6.83
2019-05-25T19:20:05.981Z,23.97
2019-05-25T19:22:34.471Z,12.63
2019-05-25T19:25:03.065Z,32.83
2019-05-25T19:27:31.486Z,9.13
2019-05-25T19:29:59.888Z,4.50
2019-05-25T19:32:28.461Z,9.93
2019-05-25T19:35:00.038Z,30.37
2019-05-25T19:37:27.144Z,5.00
2019-05-25T19:39:55.682Z,3.73
2019-05-25T19:42:24.126Z,4.23
2019-05-25T19:44:52.542Z,5.90
2019-05-25T19:47:21.000Z,7.77
2019-05-25T19:49:49.511Z,4.60
2019-05-25T19:52:18.083Z,3.43
2019-05-25T19:54:46.504Z,3.60
2019-05-25T19:57:14.994Z,7.03
2019-05-25T19:59:43.571Z,5.53
2019-05-25T20:02:11.986Z,5.23
2019-05-25T20:04:40.502Z,3.70
2019-05-25T20:07:09.064Z,8.13
2019-05-25T20:09:37.512Z,4.33
2019-05-25T20:12:06.000Z,5.83
2019-05-25T20:14:34.399Z,4.87
2019-05-25T20:17:02.940Z,3.87
2019-05-25T20:19:31.413Z,7.80
2019-05-25T20:21:59.848Z,3.50
2019-05-25T20:24:28.304Z,2.80
2019-05-25T20:26:56.719Z,7.07
2019-05-25T20:29:25.164Z,5.27
2019-05-25T20:31:53.591Z,4.80
2019-05-25T20:34:21.999Z,6.97
2019-05-25T20:36:50.504Z,5.50
2019-05-25T20:39:18.904Z,7.93
2019-05-25T20:41:47.383Z,3.73
2019-05-25T20:44:15.910Z,7.07
2019-05-25T20:46:44.347Z,7.27
2019-05-25T20:49:12.857Z,4.30
2019-05-25T20:51:41.256Z,4.73
2019-05-25T20:54:09.701Z,4.17
2019-05-25T20:56:38.124Z,3.30
2019-05-25T20:59:06.609Z,3.20
2019-05-25T21:01:35.084Z,4.37
2019-05-25T21:04:03.664Z,4.13
2019-05-25T21:06:32.108Z,9.30
2019-05-25T21:09:00.610Z,3.83
2019-05-25T21:11:29.092Z,5.00
2019-05-25T21:13:57.529Z,5.00
2019-05-25T21:16:25.995Z,5.73
2019-05-25T21:18:54.436Z,3.03
2019-05-25T21:21:22.869Z,6.40
2019-05-25T21:23:51.300Z,3.93
2019-05-25T21:26:19.711Z,3.60
2019-05-25T21:28:48.108Z,4.40
2019-05-25T21:31:16.561Z,4.00
2019-05-25T21:33:44.967Z,3.40
2019-05-25T21:36:13.480Z,6.27
2019-05-25T21:38:41.907Z,5.33
2019-05-25T21:41:10.349Z,6.07
2019-05-25T21:43:38.825Z,4.27
2019-05-25T21:46:07.306Z,8.40
2019-05-25T21:48:35.734Z,7.00
2019-05-25T21:51:04.176Z,5.53
2019-05-25T21:53:32.598Z,3.50
2019-05-25T21:56:01.071Z,3.10
2019-05-25T21:58:29.512Z,5.63
2019-05-25T22:00:57.995Z,4.90
2019-05-25T22:03:26.550Z,6.33
2019-05-25T22:05:55.060Z,8.70
2019-05-25T22:08:23.565Z,6.93
2019-05-25T22:10:52.071Z,7.30
2019-05-25T22:13:27.993Z,5.07
2019-05-25T22:15:50.644Z,3.90
2019-05-25T22:18:19.936Z,5.73
2019-05-25T22:20:48.408Z,8.20
2019-05-25T22:23:16.845Z,3.67
2019-05-25T22:25:45.245Z,5.93
2019-05-25T22:28:13.669Z,3.57
2019-05-25T22:30:42.114Z,7.27
2019-05-25T22:33:10.559Z,8.03
2019-05-25T22:35:38.960Z,6.90
2019-05-25T22:38:07.456Z,4.70
2019-05-25T22:40:35.906Z,5.10
2019-05-25T22:43:04.387Z,5.13
2019-05-25T22:45:32.869Z,9.87
2019-05-25T22:48:01.274Z,6.43
2019-05-25T22:50:29.682Z,8.13
2019-05-25T22:52:58.104Z,8.30
2019-05-25T22:55:26.523Z,8.53
2019-05-25T22:57:55.005Z,10.90
2019-05-25T23:00:23.654Z,5.30
2019-05-25T23:02:52.065Z,5.50
2019-05-25T23:05:20.712Z,8.37
2019-05-25T23:07:49.114Z,7.40
2019-05-25T23:10:17.761Z,6.70
2019-05-25T23:12:46.195Z,8.63
2019-05-25T23:15:14.874Z,7.27
2019-05-25T23:17:43.286Z,7.00
2019-05-25T23:20:12.552Z,3.80
2019-05-25T23:22:41.117Z,4.33
2019-05-25T23:25:09.704Z,6.63
2019-05-25T23:27:38.134Z,10.90
2019-05-25T23:30:07.288Z,5.90
2019-05-25T23:32:35.717Z,5.43
2019-05-25T23:35:04.954Z,4.50
2019-05-25T23:37:33.467Z,7.13
2019-05-25T23:40:01.892Z,4.70
2019-05-25T23:42:30.307Z,6.63
2019-05-25T23:44:58.706Z,7.80
2019-05-25T23:47:27.126Z,7.00
2019-05-25T23:49:58.856Z,4.87
2019-05-25T23:52:25.686Z,6.53
2019-05-25T23:54:54.107Z,9.70
2019-05-25T23:57:22.506Z,5.07
2019-05-25T23:59:50.939Z,5.27
